sensor_id;sensor_type;location;lat;lon;timestamp;pressure;altitude;pressure_sealevel;temperature;humidity
17521;BME280;8878;-33.370;-70.552;2023-02-12T00:01:57;91684.97;;;30.76;26.92
17521;BME280;8878;-33.370;-70.552;2023-02-12T00:04:26;91689.38;;;30.56;26.80
17521;BME280;8878;-33.370;-70.552;2023-02-12T00:06:59;91679.97;;;30.64;27.26
17521;BME280;8878;-33.370;-70.552;2023-02-12T00:09:28;91685.22;;;30.37;27.62
17521;BME280;8878;-33.370;-70.552;2023-02-12T00:11:58;91693.25;;;30.58;29.25
17521;BME280;8878;-33.370;-70.552;2023-02-12T00:14:27;91689.41;;;30.52;29.61
17521;BME280;8878;-33.370;-70.552;2023-02-12T00:16:56;91693.69;;;30.53;29.71
17521;BME280;8878;-33.370;-70.552;2023-02-12T00:19:26;91696.47;;;30.39;30.14
17521;BME280;8878;-33.370;-70.552;2023-02-12T00:21:55;91688.38;;;30.32;30.14
17521;BME280;8878;-33.370;-70.552;2023-02-12T00:24:26;91700.06;;;30.25;30.59
17521;BME280;8878;-33.370;-70.552;2023-02-12T00:26:56;91698.91;;;30.23;30.67
17521;BME280;8878;-33.370;-70.552;2023-02-12T00:29:25;91700.22;;;29.90;29.50
17521;BME280;8878;-33.370;-70.552;2023-02-12T00:31:54;91696.69;;;30.00;30.56
17521;BME280;8878;-33.370;-70.552;2023-02-12T00:34:24;91701.78;;;29.98;30.84
17521;BME280;8878;-33.370;-70.552;2023-02-12T00:36:53;91704.94;;;29.82;31.16
17521;BME280;8878;-33.370;-70.552;2023-02-12T00:39:22;91695.63;;;29.73;31.52
17521;BME280;8878;-33.370;-70.552;2023-02-12T00:41:53;91706.53;;;29.69;31.12
17521;BME280;8878;-33.370;-70.552;2023-02-12T00:44:23;91703.06;;;29.58;31.68
17521;BME280;8878;-33.370;-70.552;2023-02-12T00:46:52;91703.91;;;29.44;31.87
17521;BME280;8878;-33.370;-70.552;2023-02-12T00:49:21;91704.31;;;29.36;32.36
17521;BME280;8878;-33.370;-70.552;2023-02-12T00:51:51;91707.41;;;29.24;32.60
17521;BME280;8878;-33.370;-70.552;2023-02-12T00:54:20;91707.44;;;29.13;32.73
17521;BME280;8878;-33.370;-70.552;2023-02-12T00:56:49;91711.34;;;28.98;32.85
17521;BME280;8878;-33.370;-70.552;2023-02-12T00:59:20;91712.16;;;28.77;32.94
17521;BME280;8878;-33.370;-70.552;2023-02-12T01:01:49;91705.53;;;28.78;32.58
17521;BME280;8878;-33.370;-70.552;2023-02-12T01:04:25;91712.91;;;28.63;31.64
17521;BME280;8878;-33.370;-70.552;2023-02-12T01:06:57;91716.00;;;28.79;32.32
17521;BME280;8878;-33.370;-70.552;2023-02-12T01:09:28;91717.56;;;28.88;32.10
17521;BME280;8878;-33.370;-70.552;2023-02-12T01:11:57;91718.34;;;28.77;31.83
17521;BME280;8878;-33.370;-70.552;2023-02-12T01:14:29;91719.09;;;28.74;32.20
17521;BME280;8878;-33.370;-70.552;2023-02-12T01:17:01;91718.31;;;28.67;33.31
17521;BME280;8878;-33.370;-70.552;2023-02-12T01:19:31;91722.19;;;28.48;32.89
17521;BME280;8878;-33.370;-70.552;2023-02-12T01:22:01;91722.19;;;28.59;32.56
17521;BME280;8878;-33.370;-70.552;2023-02-12T01:24:31;91727.63;;;28.55;32.13
17521;BME280;8878;-33.370;-70.552;2023-02-12T01:27:03;91719.47;;;28.59;33.02
17521;BME280;8878;-33.370;-70.552;2023-02-12T01:29:34;91720.63;;;28.47;33.51
17521;BME280;8878;-33.370;-70.552;2023-02-12T01:32:04;91720.63;;;28.33;33.94
17521;BME280;8878;-33.370;-70.552;2023-02-12T01:34:35;91729.50;;;28.23;33.32
17521;BME280;8878;-33.370;-70.552;2023-02-12T01:37:04;91730.25;;;28.13;34.04
17521;BME280;8878;-33.370;-70.552;2023-02-12T01:39:34;91727.13;;;28.03;34.80
17521;BME280;8878;-33.370;-70.552;2023-02-12T01:42:04;91729.81;;;27.96;34.58
17521;BME280;8878;-33.370;-70.552;2023-02-12T01:44:36;91729.00;;;27.92;34.09
17521;BME280;8878;-33.370;-70.552;2023-02-12T01:47:15;91735.97;;;27.83;34.59
17521;BME280;8878;-33.370;-70.552;2023-02-12T01:49:47;91739.06;;;27.85;34.44
17521;BME280;8878;-33.370;-70.552;2023-02-12T01:52:19;91732.06;;;27.77;34.46
17521;BME280;8878;-33.370;-70.552;2023-02-12T01:54:50;91728.19;;;27.74;34.47
17521;BME280;8878;-33.370;-70.552;2023-02-12T01:57:21;91737.06;;;27.71;34.94
17521;BME280;8878;-33.370;-70.552;2023-02-12T01:59:55;91726.97;;;27.64;34.65
17521;BME280;8878;-33.370;-70.552;2023-02-12T02:02:26;91735.41;;;27.49;35.58
17521;BME280;8878;-33.370;-70.552;2023-02-12T02:04:59;91734.53;;;27.31;36.47
17521;BME280;8878;-33.370;-70.552;2023-02-12T02:07:29;91723.28;;;27.28;36.13
17521;BME280;8878;-33.370;-70.552;2023-02-12T02:09:59;91732.63;;;27.35;35.58
17521;BME280;8878;-33.370;-70.552;2023-02-12T02:12:31;91721.00;;;27.34;35.81
17521;BME280;8878;-33.370;-70.552;2023-02-12T02:15:19;91722.09;;;27.22;36.48
17521;BME280;8878;-33.370;-70.552;2023-02-12T02:17:52;91723.59;;;27.16;36.21
17521;BME280;8878;-33.370;-70.552;2023-02-12T02:20:55;91722.44;;;27.14;35.83
17521;BME280;8878;-33.370;-70.552;2023-02-12T02:23:53;91721.63;;;27.06;36.08
17521;BME280;8878;-33.370;-70.552;2023-02-12T02:26:41;91722.38;;;27.00;36.07
17521;BME280;8878;-33.370;-70.552;2023-02-12T02:32:16;91710.78;;;27.06;34.80
17521;BME280;8878;-33.370;-70.552;2023-02-12T02:34:52;91709.56;;;26.97;35.26
17521;BME280;8878;-33.370;-70.552;2023-02-12T02:37:27;91719.91;;;26.87;34.61
17521;BME280;8878;-33.370;-70.552;2023-02-12T02:40:01;91714.94;;;26.93;36.26
17521;BME280;8878;-33.370;-70.552;2023-02-12T02:42:38;91713.31;;;26.81;37.47
17521;BME280;8878;-33.370;-70.552;2023-02-12T02:45:12;91703.56;;;26.70;38.58
17521;BME280;8878;-33.370;-70.552;2023-02-12T02:47:49;91698.88;;;26.63;39.67
17521;BME280;8878;-33.370;-70.552;2023-02-12T02:50:22;91697.69;;;26.61;38.48
17521;BME280;8878;-33.370;-70.552;2023-02-12T02:52:53;91694.88;;;26.46;40.15
17521;BME280;8878;-33.370;-70.552;2023-02-12T02:55:29;91679.66;;;26.31;39.99
17521;BME280;8878;-33.370;-70.552;2023-02-12T02:58:03;91685.44;;;26.26;40.51
17521;BME280;8878;-33.370;-70.552;2023-02-12T03:00:40;91675.75;;;26.25;39.45
17521;BME280;8878;-33.370;-70.552;2023-02-12T03:03:18;91679.16;;;26.22;40.28
17521;BME280;8878;-33.370;-70.552;2023-02-12T03:05:56;91677.22;;;26.19;37.92
17521;BME280;8878;-33.370;-70.552;2023-02-12T03:08:29;91671.56;;;26.31;40.53
17521;BME280;8878;-33.370;-70.552;2023-02-12T03:11:04;91663.88;;;26.37;39.80
17521;BME280;8878;-33.370;-70.552;2023-02-12T03:13:43;91663.91;;;26.40;40.19
17521;BME280;8878;-33.370;-70.552;2023-02-12T03:16:18;91659.59;;;26.32;39.53
17521;BME280;8878;-33.370;-70.552;2023-02-12T03:18:53;91655.38;;;26.38;37.49
17521;BME280;8878;-33.370;-70.552;2023-02-12T03:21:28;91655.81;;;26.40;36.91
17521;BME280;8878;-33.370;-70.552;2023-02-12T03:24:06;91655.44;;;26.45;37.03
17521;BME280;8878;-33.370;-70.552;2023-02-12T03:26:44;91647.69;;;26.40;37.39
17521;BME280;8878;-33.370;-70.552;2023-02-12T03:29:14;91643.75;;;26.31;37.36
17521;BME280;8878;-33.370;-70.552;2023-02-12T03:31:58;91644.00;;;26.19;38.45
17521;BME280;8878;-33.370;-70.552;2023-02-12T03:34:38;91642.50;;;26.21;39.42
17521;BME280;8878;-33.370;-70.552;2023-02-12T03:37:17;91648.94;;;26.09;38.24
17521;BME280;8878;-33.370;-70.552;2023-02-12T03:39:52;91652.00;;;26.08;37.92
17521;BME280;8878;-33.370;-70.552;2023-02-12T03:42:33;91641.53;;;26.03;37.86
17521;BME280;8878;-33.370;-70.552;2023-02-12T03:45:09;91647.97;;;25.88;37.57
17521;BME280;8878;-33.370;-70.552;2023-02-12T03:47:46;91640.22;;;25.86;36.91
17521;BME280;8878;-33.370;-70.552;2023-02-12T03:50:20;91638.50;;;25.67;37.38
17521;BME280;8878;-33.370;-70.552;2023-02-12T03:52:53;91633.53;;;25.69;37.68
17521;BME280;8878;-33.370;-70.552;2023-02-12T03:55:23;91635.16;;;25.81;38.23
17521;BME280;8878;-33.370;-70.552;2023-02-12T03:57:56;91636.72;;;25.79;40.97
17521;BME280;8878;-33.370;-70.552;2023-02-12T04:00:30;91629.25;;;25.68;40.65
17521;BME280;8878;-33.370;-70.552;2023-02-12T04:03:00;91631.22;;;25.71;39.90
17521;BME280;8878;-33.370;-70.552;2023-02-12T04:05:31;91630.13;;;25.80;39.47
17521;BME280;8878;-33.370;-70.552;2023-02-12T04:08:03;91626.97;;;25.70;37.58
17521;BME280;8878;-33.370;-70.552;2023-02-12T04:10:37;91632.09;;;25.83;40.04
17521;BME280;8878;-33.370;-70.552;2023-02-12T04:13:18;91620.44;;;25.71;40.95
17521;BME280;8878;-33.370;-70.552;2023-02-12T04:16:02;91619.47;;;25.57;41.26
17521;BME280;8878;-33.370;-70.552;2023-02-12T04:18:39;91614.28;;;25.41;42.27
17521;BME280;8878;-33.370;-70.552;2023-02-12T04:21:17;91622.72;;;25.36;42.33
17521;BME280;8878;-33.370;-70.552;2023-02-12T04:23:55;91614.75;;;25.13;43.43
17521;BME280;8878;-33.370;-70.552;2023-02-12T04:26:33;91605.44;;;25.11;42.79
17521;BME280;8878;-33.370;-70.552;2023-02-12T04:29:16;91604.69;;;25.10;43.59
17521;BME280;8878;-33.370;-70.552;2023-02-12T04:31:49;91605.50;;;25.14;43.95
17521;BME280;8878;-33.370;-70.552;2023-02-12T04:34:28;91602.34;;;25.09;43.12
17521;BME280;8878;-33.370;-70.552;2023-02-12T04:37:08;91614.78;;;25.17;41.76
17521;BME280;8878;-33.370;-70.552;2023-02-12T04:39:41;91610.84;;;25.11;42.46
17521;BME280;8878;-33.370;-70.552;2023-02-12T04:42:11;91603.72;;;24.95;42.74
17521;BME280;8878;-33.370;-70.552;2023-02-12T04:44:42;91598.22;;;24.88;43.20
17521;BME280;8878;-33.370;-70.552;2023-02-12T04:47:12;91605.00;;;24.75;43.92
17521;BME280;8878;-33.370;-70.552;2023-02-12T04:49:42;91605.75;;;24.76;42.38
17521;BME280;8878;-33.370;-70.552;2023-02-12T04:52:13;91603.69;;;24.66;43.61
17521;BME280;8878;-33.370;-70.552;2023-02-12T04:54:42;91605.63;;;24.65;43.60
17521;BME280;8878;-33.370;-70.552;2023-02-12T04:57:11;91596.78;;;24.65;44.40
17521;BME280;8878;-33.370;-70.552;2023-02-12T04:59:41;91604.06;;;24.64;43.75
17521;BME280;8878;-33.370;-70.552;2023-02-12T05:02:10;91601.78;;;24.66;44.00
17521;BME280;8878;-33.370;-70.552;2023-02-12T05:04:39;91603.97;;;24.57;45.02
17521;BME280;8878;-33.370;-70.552;2023-02-12T05:07:10;91603.13;;;24.53;44.61
17521;BME280;8878;-33.370;-70.552;2023-02-12T05:09:41;91594.47;;;24.37;45.12
17521;BME280;8878;-33.370;-70.552;2023-02-12T05:12:11;91587.59;;;24.43;44.80
17521;BME280;8878;-33.370;-70.552;2023-02-12T05:14:40;91592.16;;;24.39;44.30
17521;BME280;8878;-33.370;-70.552;2023-02-12T05:17:10;91588.66;;;24.35;44.85
17521;BME280;8878;-33.370;-70.552;2023-02-12T05:19:39;91582.06;;;24.32;44.47
17521;BME280;8878;-33.370;-70.552;2023-02-12T05:22:09;91586.66;;;24.32;43.35
17521;BME280;8878;-33.370;-70.552;2023-02-12T05:24:40;91590.13;;;24.32;43.58
17521;BME280;8878;-33.370;-70.552;2023-02-12T05:27:10;91587.53;;;24.39;41.68
17521;BME280;8878;-33.370;-70.552;2023-02-12T05:29:39;91587.31;;;24.51;41.91
17521;BME280;8878;-33.370;-70.552;2023-02-12T05:32:09;91581.19;;;24.51;41.57
17521;BME280;8878;-33.370;-70.552;2023-02-12T05:34:38;91585.38;;;24.48;41.38
17521;BME280;8878;-33.370;-70.552;2023-02-12T05:37:07;91583.72;;;24.40;41.91
17521;BME280;8878;-33.370;-70.552;2023-02-12T05:39:37;91577.53;;;24.40;41.72
17521;BME280;8878;-33.370;-70.552;2023-02-12T05:42:08;91582.56;;;24.41;42.16
17521;BME280;8878;-33.370;-70.552;2023-02-12T05:44:37;91582.59;;;24.45;42.21
17521;BME280;8878;-33.370;-70.552;2023-02-12T05:47:06;91572.91;;;24.37;42.09
17521;BME280;8878;-33.370;-70.552;2023-02-12T05:49:36;91575.16;;;24.35;42.06
17521;BME280;8878;-33.370;-70.552;2023-02-12T05:52:05;91584.50;;;24.41;40.56
17521;BME280;8878;-33.370;-70.552;2023-02-12T05:54:34;91583.88;;;24.51;40.31
17521;BME280;8878;-33.370;-70.552;2023-02-12T05:57:05;91574.22;;;24.50;40.90
17521;BME280;8878;-33.370;-70.552;2023-02-12T05:59:36;91582.56;;;24.41;41.72
17521;BME280;8878;-33.370;-70.552;2023-02-12T06:02:05;91587.50;;;24.36;41.68
17521;BME280;8878;-33.370;-70.552;2023-02-12T06:04:35;91579.72;;;24.31;42.42
17521;BME280;8878;-33.370;-70.552;2023-02-12T06:07:04;91581.63;;;24.30;42.93
17521;BME280;8878;-33.370;-70.552;2023-02-12T06:09:35;91584.31;;;24.30;42.82
17521;BME280;8878;-33.370;-70.552;2023-02-12T06:12:05;91580.25;;;24.17;43.40
17521;BME280;8878;-33.370;-70.552;2023-02-12T06:14:36;91581.59;;;24.04;44.77
17521;BME280;8878;-33.370;-70.552;2023-02-12T06:17:08;91588.63;;;24.08;44.37
17521;BME280;8878;-33.370;-70.552;2023-02-12T06:19:37;91586.31;;;24.10;44.51
17521;BME280;8878;-33.370;-70.552;2023-02-12T06:22:07;91581.34;;;24.12;43.98
17521;BME280;8878;-33.370;-70.552;2023-02-12T06:24:36;91589.56;;;24.19;44.01
17521;BME280;8878;-33.370;-70.552;2023-02-12T06:27:05;91586.63;;;24.05;44.23
17521;BME280;8878;-33.370;-70.552;2023-02-12T06:29:36;91586.88;;;23.97;44.82
17521;BME280;8878;-33.370;-70.552;2023-02-12T06:32:06;91590.00;;;23.99;44.44
17521;BME280;8878;-33.370;-70.552;2023-02-12T06:34:35;91591.22;;;24.01;44.63
17521;BME280;8878;-33.370;-70.552;2023-02-12T06:37:05;91584.66;;;24.02;44.63
17521;BME280;8878;-33.370;-70.552;2023-02-12T06:39:35;91593.25;;;24.11;42.50
17521;BME280;8878;-33.370;-70.552;2023-02-12T06:42:04;91594.72;;;24.05;41.87
17521;BME280;8878;-33.370;-70.552;2023-02-12T06:44:35;91590.78;;;23.99;40.76
17521;BME280;8878;-33.370;-70.552;2023-02-12T06:47:05;91595.91;;;24.08;40.45
17521;BME280;8878;-33.370;-70.552;2023-02-12T06:49:34;91588.75;;;24.19;41.94
17521;BME280;8878;-33.370;-70.552;2023-02-12T06:52:03;91591.03;;;24.17;41.95
17521;BME280;8878;-33.370;-70.552;2023-02-12T06:54:33;91587.97;;;24.18;41.71
17521;BME280;8878;-33.370;-70.552;2023-02-12T06:57:02;91587.22;;;24.18;41.98
17521;BME280;8878;-33.370;-70.552;2023-02-12T06:59:31;91587.06;;;24.07;42.13
17521;BME280;8878;-33.370;-70.552;2023-02-12T07:02:02;91593.47;;;23.99;42.28
17521;BME280;8878;-33.370;-70.552;2023-02-12T07:04:32;91588.91;;;24.03;42.27
17521;BME280;8878;-33.370;-70.552;2023-02-12T07:07:02;91581.97;;;24.02;42.79
17521;BME280;8878;-33.370;-70.552;2023-02-12T07:09:32;91589.41;;;23.86;43.67
17521;BME280;8878;-33.370;-70.552;2023-02-12T07:12:01;91590.13;;;23.83;44.01
17521;BME280;8878;-33.370;-70.552;2023-02-12T07:14:30;91589.81;;;23.88;43.05
17521;BME280;8878;-33.370;-70.552;2023-02-12T07:17:01;91595.81;;;23.78;43.94
17521;BME280;8878;-33.370;-70.552;2023-02-12T07:19:32;91590.91;;;23.84;43.22
17521;BME280;8878;-33.370;-70.552;2023-02-12T07:22:01;91588.88;;;23.77;43.47
17521;BME280;8878;-33.370;-70.552;2023-02-12T07:24:32;91594.97;;;23.74;42.75
17521;BME280;8878;-33.370;-70.552;2023-02-12T07:27:01;91585.06;;;23.78;43.39
17521;BME280;8878;-33.370;-70.552;2023-02-12T07:29:31;91593.47;;;23.76;43.90
17521;BME280;8878;-33.370;-70.552;2023-02-12T07:32:02;91588.75;;;23.70;44.51
17521;BME280;8878;-33.370;-70.552;2023-02-12T07:34:32;91588.75;;;23.70;43.99
17521;BME280;8878;-33.370;-70.552;2023-02-12T07:37:01;91587.28;;;23.72;44.37
17521;BME280;8878;-33.370;-70.552;2023-02-12T07:39:33;91586.38;;;23.65;45.03
17521;BME280;8878;-33.370;-70.552;2023-02-12T07:42:02;91589.78;;;23.62;45.36
17521;BME280;8878;-33.370;-70.552;2023-02-12T07:44:32;91591.34;;;23.63;44.62
17521;BME280;8878;-33.370;-70.552;2023-02-12T07:47:03;91586.06;;;23.70;44.07
17521;BME280;8878;-33.370;-70.552;2023-02-12T07:49:51;91592.59;;;23.69;44.27
17521;BME280;8878;-33.370;-70.552;2023-02-12T07:52:20;91587.56;;;23.67;44.01
17521;BME280;8878;-33.370;-70.552;2023-02-12T07:54:49;91587.28;;;23.72;44.23
17521;BME280;8878;-33.370;-70.552;2023-02-12T07:57:19;91590.75;;;23.73;43.63
17521;BME280;8878;-33.370;-70.552;2023-02-12T07:59:48;91587.19;;;23.69;43.11
17521;BME280;8878;-33.370;-70.552;2023-02-12T08:02:19;91591.03;;;23.68;44.27
17521;BME280;8878;-33.370;-70.552;2023-02-12T08:04:55;91585.72;;;23.71;43.61
17521;BME280;8878;-33.370;-70.552;2023-02-12T08:07:24;91582.66;;;23.73;43.46
17521;BME280;8878;-33.370;-70.552;2023-02-12T08:09:55;91586.09;;;23.73;43.21
17521;BME280;8878;-33.370;-70.552;2023-02-12T08:12:24;91588.50;;;23.56;43.61
17521;BME280;8878;-33.370;-70.552;2023-02-12T08:14:53;91585.53;;;23.61;43.71
17521;BME280;8878;-33.370;-70.552;2023-02-12T08:17:24;91590.06;;;23.57;43.91
17521;BME280;8878;-33.370;-70.552;2023-02-12T08:19:54;91581.66;;;23.39;44.07
17521;BME280;8878;-33.370;-70.552;2023-02-12T08:22:23;91582.47;;;23.20;42.15
17521;BME280;8878;-33.370;-70.552;2023-02-12T08:24:54;91584.25;;;23.13;41.33
17521;BME280;8878;-33.370;-70.552;2023-02-12T08:27:26;91586.69;;;23.40;41.99
17521;BME280;8878;-33.370;-70.552;2023-02-12T08:29:55;91585.25;;;23.47;42.33
17521;BME280;8878;-33.370;-70.552;2023-02-12T08:32:26;91579.31;;;23.57;41.72
17521;BME280;8878;-33.370;-70.552;2023-02-12T08:34:58;91570.88;;;23.39;41.78
17521;BME280;8878;-33.370;-70.552;2023-02-12T08:37:28;91577.41;;;23.38;41.63
17521;BME280;8878;-33.370;-70.552;2023-02-12T08:39:57;91574.97;;;23.52;42.65
17521;BME280;8878;-33.370;-70.552;2023-02-12T08:42:26;91583.47;;;23.54;43.30
17521;BME280;8878;-33.370;-70.552;2023-02-12T08:44:56;91579.03;;;23.42;42.94
17521;BME280;8878;-33.370;-70.552;2023-02-12T08:47:27;91574.94;;;23.49;42.21
17521;BME280;8878;-33.370;-70.552;2023-02-12T08:49:56;91580.31;;;23.49;41.57
17521;BME280;8878;-33.370;-70.552;2023-02-12T08:52:25;91588.03;;;23.50;41.89
17521;BME280;8878;-33.370;-70.552;2023-02-12T08:54:55;91591.88;;;23.49;42.50
17521;BME280;8878;-33.370;-70.552;2023-02-12T08:57:24;91578.91;;;23.35;43.31
17521;BME280;8878;-33.370;-70.552;2023-02-12T08:59:53;91590.53;;;23.20;43.37
17521;BME280;8878;-33.370;-70.552;2023-02-12T09:02:22;91575.41;;;23.12;42.57
17521;BME280;8878;-33.370;-70.552;2023-02-12T09:04:53;91585.38;;;23.12;44.26
17521;BME280;8878;-33.370;-70.552;2023-02-12T09:07:23;91591.06;;;23.07;44.87
17521;BME280;8878;-33.370;-70.552;2023-02-12T09:09:52;91593.59;;;22.99;45.27
17521;BME280;8878;-33.370;-70.552;2023-02-12T09:12:21;91590.78;;;22.92;45.43
17521;BME280;8878;-33.370;-70.552;2023-02-12T09:14:50;91600.31;;;22.90;46.08
17521;BME280;8878;-33.370;-70.552;2023-02-12T09:17:20;91603.31;;;22.85;46.48
17521;BME280;8878;-33.370;-70.552;2023-02-12T09:19:54;91601.47;;;22.89;45.20
17521;BME280;8878;-33.370;-70.552;2023-02-12T09:22:24;91596.81;;;22.86;45.59
17521;BME280;8878;-33.370;-70.552;2023-02-12T09:24:54;91600.97;;;22.83;45.57
17521;BME280;8878;-33.370;-70.552;2023-02-12T09:27:23;91596.22;;;22.77;43.98
17521;BME280;8878;-33.370;-70.552;2023-02-12T09:29:53;91597.00;;;22.77;43.38
17521;BME280;8878;-33.370;-70.552;2023-02-12T09:32:22;91597.59;;;22.86;42.94
17521;BME280;8878;-33.370;-70.552;2023-02-12T09:34:54;91598.63;;;22.82;43.91
17521;BME280;8878;-33.370;-70.552;2023-02-12T09:37:24;91597.25;;;22.72;45.93
17521;BME280;8878;-33.370;-70.552;2023-02-12T09:39:54;91603.84;;;22.75;45.25
17521;BME280;8878;-33.370;-70.552;2023-02-12T09:42:43;91607.50;;;22.66;45.64
17521;BME280;8878;-33.370;-70.552;2023-02-12T09:45:20;91607.69;;;22.74;44.72
17521;BME280;8878;-33.370;-70.552;2023-02-12T09:47:55;91616.25;;;22.79;43.42
17521;BME280;8878;-33.370;-70.552;2023-02-12T09:50:39;91611.81;;;22.87;44.20
17521;BME280;8878;-33.370;-70.552;2023-02-12T09:53:15;91609.25;;;22.75;44.59
17521;BME280;8878;-33.370;-70.552;2023-02-12T09:55:45;91612.13;;;22.66;44.46
17521;BME280;8878;-33.370;-70.552;2023-02-12T09:58:21;91613.59;;;22.63;44.85
17521;BME280;8878;-33.370;-70.552;2023-02-12T10:00:52;91613.59;;;22.63;44.97
17521;BME280;8878;-33.370;-70.552;2023-02-12T10:03:22;91612.97;;;22.70;44.00
17521;BME280;8878;-33.370;-70.552;2023-02-12T10:05:55;91613.31;;;22.69;44.28
17521;BME280;8878;-33.370;-70.552;2023-02-12T10:08:45;91610.81;;;22.60;44.28
17521;BME280;8878;-33.370;-70.552;2023-02-12T10:11:46;91609.97;;;22.56;44.67
17521;BME280;8878;-33.370;-70.552;2023-02-12T10:17:25;91609.88;;;22.52;44.54
17521;BME280;8878;-33.370;-70.552;2023-02-12T10:23:26;91612.16;;;22.50;45.05
17521;BME280;8878;-33.370;-70.552;2023-02-12T10:26:13;91617.63;;;22.38;45.80
17521;BME280;8878;-33.370;-70.552;2023-02-12T10:28:46;91619.03;;;22.32;46.13
17521;BME280;8878;-33.370;-70.552;2023-02-12T10:31:20;91611.06;;;22.36;46.01
17521;BME280;8878;-33.370;-70.552;2023-02-12T10:33:52;91611.91;;;22.40;46.37
17521;BME280;8878;-33.370;-70.552;2023-02-12T10:36:33;91611.56;;;22.41;45.94
17521;BME280;8878;-33.370;-70.552;2023-02-12T10:39:13;91616.66;;;22.46;45.85
17521;BME280;8878;-33.370;-70.552;2023-02-12T10:41:47;91616.81;;;22.53;45.57
17521;BME280;8878;-33.370;-70.552;2023-02-12T10:44:19;91618.81;;;22.56;44.85
17521;BME280;8878;-33.370;-70.552;2023-02-12T10:46:48;91621.38;;;22.69;44.31
17521;BME280;8878;-33.370;-70.552;2023-02-12T10:49:20;91612.59;;;22.87;43.40
17521;BME280;8878;-33.370;-70.552;2023-02-12T10:51:59;91618.16;;;22.98;41.59
17521;BME280;8878;-33.370;-70.552;2023-02-12T10:54:40;91617.53;;;23.04;41.10
17521;BME280;8878;-33.370;-70.552;2023-02-12T10:57:17;91627.66;;;23.11;43.07
17521;BME280;8878;-33.370;-70.552;2023-02-12T10:59:49;91629.22;;;22.93;42.61
17521;BME280;8878;-33.370;-70.552;2023-02-12T11:02:26;91627.56;;;22.88;41.65
17521;BME280;8878;-33.370;-70.552;2023-02-12T11:04:57;91633.31;;;23.06;41.00
17521;BME280;8878;-33.370;-70.552;2023-02-12T11:07:28;91640.25;;;23.26;41.13
17521;BME280;8878;-33.370;-70.552;2023-02-12T11:09:59;91637.22;;;23.28;42.62
17521;BME280;8878;-33.370;-70.552;2023-02-12T11:12:33;91632.34;;;23.14;41.31
17521;BME280;8878;-33.370;-70.552;2023-02-12T11:15:06;91643.63;;;23.23;41.53
17521;BME280;8878;-33.370;-70.552;2023-02-12T11:17:39;91649.94;;;23.31;43.46
17521;BME280;8878;-33.370;-70.552;2023-02-12T11:20:31;91648.75;;;23.28;43.46
17521;BME280;8878;-33.370;-70.552;2023-02-12T11:23:02;91650.44;;;23.36;42.88
17521;BME280;8878;-33.370;-70.552;2023-02-12T11:25:36;91659.34;;;23.40;43.47
17521;BME280;8878;-33.370;-70.552;2023-02-12T11:28:13;91652.00;;;23.57;42.79
17521;BME280;8878;-33.370;-70.552;2023-02-12T11:30:51;91651.84;;;23.69;41.66
17521;BME280;8878;-33.370;-70.552;2023-02-12T11:33:24;91668.00;;;23.92;38.94
17521;BME280;8878;-33.370;-70.552;2023-02-12T11:35:55;91669.16;;;23.91;38.40
17521;BME280;8878;-33.370;-70.552;2023-02-12T11:38:29;91661.75;;;24.30;38.09
17521;BME280;8878;-33.370;-70.552;2023-02-12T11:41:18;91662.47;;;24.53;41.34
17521;BME280;8878;-33.370;-70.552;2023-02-12T11:43:49;91669.09;;;24.59;39.25
17521;BME280;8878;-33.370;-70.552;2023-02-12T11:46:21;91666.56;;;24.70;40.87
17521;BME280;8878;-33.370;-70.552;2023-02-12T11:48:53;91675.88;;;24.72;41.00
17521;BME280;8878;-33.370;-70.552;2023-02-12T11:51:25;91674.41;;;24.78;40.64
17521;BME280;8878;-33.370;-70.552;2023-02-12T11:53:57;91681.06;;;24.88;41.08
17521;BME280;8878;-33.370;-70.552;2023-02-12T11:56:41;91684.28;;;24.93;40.40
17521;BME280;8878;-33.370;-70.552;2023-02-12T11:59:30;91680.22;;;25.07;37.40
17521;BME280;8878;-33.370;-70.552;2023-02-12T12:02:13;91686.59;;;25.21;36.53
17521;BME280;8878;-33.370;-70.552;2023-02-12T12:04:46;91683.09;;;25.21;36.93
17521;BME280;8878;-33.370;-70.552;2023-02-12T12:07:19;91686.88;;;25.16;35.58
17521;BME280;8878;-33.370;-70.552;2023-02-12T12:09:57;91684.56;;;25.15;36.96
17521;BME280;8878;-33.370;-70.552;2023-02-12T12:12:36;91681.47;;;25.16;36.79
17521;BME280;8878;-33.370;-70.552;2023-02-12T12:15:14;91691.41;;;25.39;36.86
17521;BME280;8878;-33.370;-70.552;2023-02-12T12:18:05;91692.19;;;25.39;35.10
17521;BME280;8878;-33.370;-70.552;2023-02-12T12:20:55;91690.19;;;25.66;35.79
17521;BME280;8878;-33.370;-70.552;2023-02-12T12:23:33;91701.22;;;25.20;35.02
17521;BME280;8878;-33.370;-70.552;2023-02-12T12:26:06;91710.69;;;25.07;34.66
17521;BME280;8878;-33.370;-70.552;2023-02-12T12:28:43;91709.22;;;25.43;35.85
17521;BME280;8878;-33.370;-70.552;2023-02-12T12:31:15;91702.53;;;25.63;34.82
17521;BME280;8878;-33.370;-70.552;2023-02-12T12:33:46;91712.88;;;25.28;34.51
17521;BME280;8878;-33.370;-70.552;2023-02-12T12:36:50;91715.84;;;25.19;35.85
17521;BME280;8878;-33.370;-70.552;2023-02-12T12:39:30;91715.69;;;25.09;36.56
17521;BME280;8878;-33.370;-70.552;2023-02-12T12:42:25;91722.81;;;24.94;36.66
17521;BME280;8878;-33.370;-70.552;2023-02-12T12:45:13;91720.13;;;25.50;36.32
17521;BME280;8878;-33.370;-70.552;2023-02-12T12:48:00;91726.84;;;25.33;36.48
17521;BME280;8878;-33.370;-70.552;2023-02-12T12:50:46;91723.41;;;25.66;36.16
17521;BME280;8878;-33.370;-70.552;2023-02-12T12:53:34;91738.81;;;25.62;35.16
17521;BME280;8878;-33.370;-70.552;2023-02-12T12:56:19;91726.63;;;25.79;35.38
17521;BME280;8878;-33.370;-70.552;2023-02-12T12:59:05;91727.09;;;25.85;35.04
17521;BME280;8878;-33.370;-70.552;2023-02-12T13:01:53;91726.81;;;25.93;35.71
17521;BME280;8878;-33.370;-70.552;2023-02-12T13:04:44;91736.41;;;25.91;34.86
17521;BME280;8878;-33.370;-70.552;2023-02-12T13:07:29;91731.22;;;26.12;34.96
17521;BME280;8878;-33.370;-70.552;2023-02-12T13:10:15;91739.22;;;26.01;34.20
17521;BME280;8878;-33.370;-70.552;2023-02-12T13:13:03;91742.50;;;26.18;33.89
17521;BME280;8878;-33.370;-70.552;2023-02-12T13:15:42;91744.34;;;26.47;33.85
17521;BME280;8878;-33.370;-70.552;2023-02-12T13:18:21;91736.72;;;26.19;33.95
17521;BME280;8878;-33.370;-70.552;2023-02-12T13:20:59;91744.34;;;26.10;34.10
17521;BME280;8878;-33.370;-70.552;2023-02-12T13:23:37;91745.00;;;26.37;33.31